Terminal Aerodrome Forecast
Issued by NWS

Home | Current Version | Previous Version | Graphics & Text | Print | Product List | Glossary On
Versions: 1 2 3 4 5 6 7 8 9 10 11 12 13 14 15 16 17 18
000
FTUS43 KMPX 170200 AAB
TAFRNH
TAF AMD
KRNH 170259Z 1703/1724 05012G18KT 3SM -RA BR BKN020 OVC025
      TEMPO 1704/1706 2SM -RASN BR OVC015
     FM170600 02012KT 4SM -RASN OVC012
     FM170800 35011KT P6SM OVC015
     FM172000 32007KT P6SM OVC050=

USA.gov is the U.S. government's official web portal to all federal, state and local government web resources and services.